Terminal Aerodrome Forecast
Issued by NWS

Home | Current Version | Previous Version | Text Only | Print | Product List | Glossary On
Versions: 1 2 3 4 5 6 7 8 9 10 11 12 13 14 15 16 17 18
000
FTUS46 KPQR 272330
TAFONP
TAF
KONP 272330Z 2800/2824 28005KT 6SM BR SCT003 OVC008
     FM280300 29003KT 2SM BR OVC005
     FM280700 00000KT 1SM BR OVC003
     FM282000 27007KT 5SM BR BKN003 OVC009=

USA.gov is the U.S. government's official web portal to all federal, state and local government web resources and services.